createdAt,value
2022-08-19T09:40:54.171Z,68.96
2022-08-19T09:41:54.135Z,69.16
2022-08-19T09:42:54.151Z,69.16
2022-08-19T09:43:54.111Z,69.26
2022-08-19T09:44:54.098Z,69.16
2022-08-19T09:45:54.089Z,69.06
2022-08-19T09:46:54.083Z,69.16
2022-08-19T09:47:54.968Z,69.16
2022-08-19T09:48:54.081Z,69.16
2022-08-19T09:49:54.044Z,69.06
2022-08-19T09:50:54.034Z,69.02
2022-08-19T09:51:54.024Z,69.02
2022-08-19T09:52:57.022Z,69.06
2022-08-19T09:53:54.002Z,69.06
2022-08-19T09:54:54.013Z,68.93
2022-08-19T09:55:53.979Z,68.96
2022-08-19T09:56:53.973Z,68.93
2022-08-19T09:57:54.199Z,68.96
2022-08-19T09:58:53.978Z,68.93
2022-08-19T09:59:53.938Z,68.93
2022-08-19T10:00:54.015Z,68.83
2022-08-19T10:01:53.913Z,68.83
2022-08-19T10:02:53.905Z,68.83
2022-08-19T10:03:53.895Z,68.93
2022-08-19T10:04:53.908Z,68.93
2022-08-19T10:05:54.648Z,68.93
2022-08-19T10:06:55.429Z,68.93
2022-08-19T10:07:54.097Z,69.02
2022-08-19T10:08:53.843Z,69.02
2022-08-19T10:09:53.830Z,68.93
2022-08-19T10:10:53.819Z,69.02
2022-08-19T10:11:54.862Z,69.02
2022-08-19T10:12:53.798Z,69.02
2022-08-19T10:13:53.786Z,69.02
2022-08-19T10:14:53.780Z,69.23
2022-08-19T10:15:53.765Z,69.23
2022-08-19T10:16:53.778Z,69.23
2022-08-19T10:17:55.447Z,69.13
2022-08-19T10:18:53.735Z,69.13
2022-08-19T10:19:55.510Z,69.02
2022-08-19T10:20:53.732Z,69.02
2022-08-19T10:21:53.725Z,69.02
2022-08-19T10:22:53.692Z,69.02
2022-08-19T10:23:53.680Z,69.02
2022-08-19T10:24:53.674Z,69.02
2022-08-19T10:25:53.657Z,68.93
2022-08-19T10:26:55.829Z,69.02
2022-08-19T10:27:55.866Z,69.02
2022-08-19T10:28:53.628Z,69.02
2022-08-19T10:29:53.612Z,68.93
2022-08-19T10:30:53.623Z,68.93
2022-08-19T10:31:59.912Z,68.93
2022-08-19T10:32:54.607Z,68.93
2022-08-19T10:33:54.097Z,68.93
2022-08-19T10:34:57.283Z,68.93
2022-08-19T10:35:56.809Z,68.93
2022-08-19T10:36:56.260Z,68.83
2022-08-19T10:37:56.930Z,68.73
2022-08-19T10:38:56.896Z,68.63
2022-08-19T10:39:53.544Z,68.53
2022-08-19T10:40:53.498Z,68.53
2022-08-19T10:41:53.487Z,68.53
2022-08-19T10:42:53.475Z,68.53
2022-08-19T10:43:53.483Z,68.43
2022-08-19T10:44:53.453Z,68.43
2022-08-19T10:45:53.465Z,68.33
2022-08-19T10:46:53.432Z,68.43
2022-08-19T10:47:53.584Z,68.43
2022-08-19T10:48:53.409Z,68.33
2022-08-19T10:49:53.402Z,68.33
2022-08-19T10:50:53.414Z,68.33
2022-08-19T10:51:53.377Z,68.43
2022-08-19T10:52:53.370Z,68.43
2022-08-19T10:53:53.354Z,68.43
2022-08-19T10:54:53.346Z,68.43
2022-08-19T10:55:53.336Z,68.43
2022-08-19T10:56:53.350Z,68.43
2022-08-19T10:58:02.232Z,68.43
2022-08-19T10:58:54.303Z,68.43
2022-08-19T10:59:53.291Z,68.43
2022-08-19T11:00:53.326Z,68.43
2022-08-19T11:01:53.544Z,68.43
2022-08-19T11:02:53.283Z,68.33
2022-08-19T11:03:53.250Z,68.43
2022-08-19T11:04:53.240Z,68.43
2022-08-19T11:05:53.228Z,68.43
2022-08-19T11:06:53.217Z,68.43
2022-08-19T11:07:53.545Z,68.43
2022-08-19T11:08:53.198Z,68.43
2022-08-19T11:09:53.184Z,68.43
2022-08-19T11:10:53.177Z,68.43
2022-08-19T11:11:53.193Z,68.33
2022-08-19T11:12:53.153Z,68.33
2022-08-19T11:13:53.140Z,68.23
2022-08-19T11:14:53.134Z,68.23
2022-08-19T11:15:53.123Z,68.23
2022-08-19T11:16:53.111Z,68.13
2022-08-19T11:17:53.287Z,68.13
2022-08-19T11:18:53.087Z,68.13
2022-08-19T11:19:53.076Z,68.13
2022-08-19T11:20:53.067Z,68.13
2022-08-19T11:21:53.055Z,68.13
2022-08-19T11:22:53.048Z,68.13
2022-08-19T11:23:53.055Z,68.23
2022-08-19T11:24:53.025Z,68.23
2022-08-19T11:25:53.017Z,68.23
2022-08-19T11:26:53.024Z,68.23
2022-08-19T11:27:53.260Z,68.23
2022-08-19T11:28:52.982Z,68.23
2022-08-19T11:29:52.971Z,68.13
2022-08-19T11:30:52.960Z,68.13
2022-08-19T11:31:52.950Z,68.23
2022-08-19T11:32:52.975Z,68.23
2022-08-19T11:33:52.929Z,68.23
2022-08-19T11:34:52.936Z,68.23
2022-08-19T11:35:52.904Z,68.23
2022-08-19T11:36:52.899Z,68.23
2022-08-19T11:37:52.918Z,68.23
2022-08-19T11:38:52.895Z,68.23
2022-08-19T11:39:53.913Z,68.23
2022-08-19T11:40:52.873Z,68.23
2022-08-19T11:41:52.840Z,68.23
2022-08-19T11:42:52.833Z,68.33
2022-08-19T11:43:52.824Z,68.33
2022-08-19T11:44:52.811Z,68.33
2022-08-19T11:45:52.820Z,68.33
2022-08-19T11:46:52.792Z,68.33
2022-08-19T11:47:52.931Z,68.33
2022-08-19T11:48:52.792Z,68.33
2022-08-19T11:49:52.755Z,68.23
2022-08-19T11:50:52.766Z,68.23
2022-08-19T11:51:53.943Z,68.23
2022-08-19T11:52:52.727Z,68.13
2022-08-19T11:53:52.715Z,68.13
2022-08-19T11:54:52.703Z,68.03
2022-08-19T11:55:52.714Z,68.13
2022-08-19T11:56:52.683Z,68.13
2022-08-19T11:57:52.896Z,68.13
2022-08-19T11:58:52.659Z,68.13
2022-08-19T11:59:52.651Z,68.13
2022-08-19T12:00:52.639Z,68.13
2022-08-19T12:01:52.648Z,68.13
2022-08-19T12:02:52.619Z,68.13
2022-08-19T12:03:52.710Z,68.13
2022-08-19T12:04:52.618Z,68.13
2022-08-19T12:05:52.604Z,68.13
2022-08-19T12:06:52.578Z,68.03
2022-08-19T12:07:52.566Z,67.83
2022-08-19T12:08:52.574Z,67.73
2022-08-19T12:09:52.542Z,67.73
2022-08-19T12:10:52.556Z,67.73
2022-08-19T12:11:52.520Z,67.73
2022-08-19T12:12:55.810Z,67.83
2022-08-19T12:13:53.499Z,67.83
2022-08-19T12:14:52.489Z,67.83
2022-08-19T12:15:52.477Z,67.93
2022-08-19T12:16:52.675Z,67.93
2022-08-19T12:17:52.495Z,67.83
2022-08-19T12:18:52.449Z,67.83
2022-08-19T12:19:52.433Z,67.83
2022-08-19T12:20:52.424Z,67.83
2022-08-19T12:21:52.433Z,67.83
2022-08-19T12:22:52.403Z,67.83
2022-08-19T12:23:55.609Z,67.83
2022-08-19T12:24:52.382Z,67.83
2022-08-19T12:25:52.391Z,67.83
2022-08-19T12:26:53.737Z,67.83
2022-08-19T12:27:57.223Z,67.83
2022-08-19T12:28:53.337Z,67.83
2022-08-19T12:29:52.327Z,67.83
2022-08-19T12:30:52.325Z,67.83
2022-08-19T12:31:52.317Z,67.83
2022-08-19T12:32:52.316Z,67.83
2022-08-19T12:33:52.284Z,67.83
2022-08-19T12:34:52.295Z,67.83
2022-08-19T12:35:52.263Z,67.83
2022-08-19T12:36:52.256Z,67.83
2022-08-19T12:37:57.354Z,67.83
2022-08-19T12:38:53.233Z,67.83
2022-08-19T12:39:52.338Z,67.83
2022-08-19T12:40:52.224Z,67.83
2022-08-19T12:41:54.756Z,67.83
2022-08-19T12:42:52.190Z,67.83
2022-08-19T12:43:52.178Z,67.83
2022-08-19T12:44:52.169Z,67.83
2022-08-19T12:45:52.175Z,67.83
2022-08-19T12:46:53.920Z,67.83
2022-08-19T12:47:54.913Z,67.83
2022-08-19T12:48:55.270Z,67.83
2022-08-19T12:49:55.553Z,67.83
2022-08-19T12:50:52.106Z,67.83
2022-08-19T12:51:52.111Z,68.13
2022-08-19T12:52:52.080Z,68.13
2022-08-19T12:53:52.069Z,68.13
2022-08-19T12:54:53.885Z,68.03
2022-08-19T12:55:52.046Z,68.03
2022-08-19T12:56:52.069Z,68.03
2022-08-19T12:57:52.029Z,68.13
2022-08-19T12:58:53.156Z,68.13
2022-08-19T12:59:52.005Z,68.03
2022-08-19T13:00:52.023Z,67.93
2022-08-19T13:01:51.984Z,67.83
2022-08-19T13:02:51.992Z,67.73
2022-08-19T13:03:51.965Z,67.54
2022-08-19T13:04:51.953Z,67.63
2022-08-19T13:05:51.941Z,67.43
2022-08-19T13:06:51.928Z,67.24
2022-08-19T13:07:51.940Z,67.13
2022-08-19T13:08:53.674Z,67.13
2022-08-19T13:09:51.901Z,66.53
2022-08-19T13:10:51.887Z,65.84
2022-08-19T13:11:51.879Z,65.64
2022-08-19T13:12:51.869Z,64.91
2022-08-19T13:13:51.903Z,62.55
2022-08-19T13:14:51.866Z,61.43
2022-08-19T13:15:51.836Z,62.55
2022-08-19T13:16:51.823Z,63.72
2022-08-19T13:17:51.815Z,62.32
2022-08-19T13:18:51.805Z,61.72
2022-08-19T13:19:51.792Z,62.42
2022-08-19T13:20:52.697Z,62.32
2022-08-19T13:21:51.769Z,63.62
2022-08-19T13:22:52.759Z,63.92
2022-08-19T13:23:51.746Z,64.22
2022-08-19T13:24:51.737Z,64.01
2022-08-19T13:25:51.727Z,64.31
2022-08-19T13:26:51.747Z,64.42
2022-08-19T13:27:51.751Z,64.51
2022-08-19T13:28:51.693Z,64.51
2022-08-19T13:29:51.686Z,64.51
2022-08-19T13:30:51.674Z,64.61
2022-08-19T13:31:51.665Z,64.81
2022-08-19T13:32:51.652Z,65.01
2022-08-19T13:33:51.664Z,65.11
2022-08-19T13:34:51.631Z,65.11
2022-08-19T13:35:51.644Z,65.31
2022-08-19T13:36:51.608Z,65.34
2022-08-19T13:37:52.718Z,65.41
2022-08-19T13:38:51.587Z,65.44
2022-08-19T13:39:51.610Z,65.51
2022-08-19T13:40:51.569Z,65.54
2022-08-19T13:41:51.576Z,65.61
2022-08-19T13:42:51.568Z,65.64
2022-08-19T13:43:51.536Z,65.74
2022-08-19T13:44:51.522Z,65.81
2022-08-19T13:45:51.537Z,65.84
2022-08-19T13:46:53.973Z,65.91
2022-08-19T13:47:53.671Z,65.91
2022-08-19T13:48:52.501Z,65.91
2022-08-19T13:49:51.471Z,65.91
2022-08-19T13:50:51.459Z,66.01
2022-08-19T13:51:51.447Z,66.11
2022-08-19T13:52:51.437Z,66.11
2022-08-19T13:53:51.449Z,66.24
2022-08-19T13:54:51.416Z,66.20
2022-08-19T13:55:51.432Z,66.31
2022-08-19T13:56:51.395Z,66.20
2022-08-19T13:57:51.384Z,66.20
2022-08-19T13:58:51.372Z,66.20
2022-08-19T13:59:51.370Z,66.41
2022-08-19T14:00:51.515Z,66.41
2022-08-19T14:01:51.365Z,66.50
2022-08-19T14:02:51.327Z,66.50
2022-08-19T14:03:51.343Z,66.50
2022-08-19T14:04:51.309Z,66.50
2022-08-19T14:05:51.307Z,66.50
2022-08-19T14:06:51.286Z,66.61
2022-08-19T14:07:51.280Z,66.71
2022-08-19T14:08:51.288Z,66.80
2022-08-19T14:09:51.256Z,66.80
2022-08-19T14:10:51.244Z,66.80
2022-08-19T14:11:51.234Z,66.91
2022-08-19T14:12:51.252Z,66.80
2022-08-19T14:13:51.211Z,66.80
2022-08-19T14:14:51.200Z,66.80
2022-08-19T14:15:51.189Z,66.80
2022-08-19T14:16:51.185Z,66.80
2022-08-19T14:17:51.229Z,66.71
2022-08-19T14:18:51.177Z,66.71
2022-08-19T14:19:51.149Z,66.80
2022-08-19T14:20:51.155Z,66.91
2022-08-19T14:21:51.125Z,66.91
2022-08-19T14:22:51.139Z,66.91
2022-08-19T14:23:51.104Z,66.91
2022-08-19T14:24:51.094Z,66.91
2022-08-19T14:25:51.083Z,67.00
2022-08-19T14:26:51.074Z,67.00
2022-08-19T14:27:51.174Z,66.91
2022-08-19T14:28:51.071Z,67.00
2022-08-19T14:29:51.041Z,67.00
2022-08-19T14:30:51.028Z,67.10
2022-08-19T14:31:52.040Z,67.10
2022-08-19T14:32:51.014Z,67.10
2022-08-19T14:33:51.023Z,67.00
2022-08-19T14:34:50.985Z,66.80
2022-08-19T14:35:50.976Z,67.30
2022-08-19T14:36:51.962Z,67.30
2022-08-19T14:37:50.976Z,67.60
2022-08-19T14:38:50.970Z,67.60
2022-08-19T14:39:50.983Z,67.90
2022-08-19T14:40:50.924Z,68.79
2022-08-19T14:41:50.912Z,69.29
2022-08-19T14:42:50.897Z,69.79
2022-08-19T14:43:50.895Z,69.89
2022-08-19T14:44:50.897Z,70.29
2022-08-19T14:45:50.869Z,70.19
2022-08-19T14:46:50.866Z,70.59
2022-08-19T14:47:50.919Z,69.59
2022-08-19T14:48:51.890Z,69.29
2022-08-19T14:49:50.823Z,69.20
2022-08-19T14:50:50.814Z,69.09
2022-08-19T14:51:50.805Z,69.09
2022-08-19T14:52:50.830Z,69.20
2022-08-19T14:53:50.809Z,69.09
2022-08-19T14:54:50.769Z,68.99
2022-08-19T14:55:50.782Z,68.79
2022-08-19T14:56:50.749Z,68.70
2022-08-19T14:57:50.767Z,68.60
2022-08-19T14:58:50.775Z,68.40
2022-08-19T14:59:50.737Z,68.40
2022-08-19T15:00:51.225Z,68.20
2022-08-19T15:01:50.782Z,68.10
2022-08-19T15:02:50.809Z,68.00
2022-08-19T15:03:50.683Z,68.00
2022-08-19T15:04:58.266Z,68.00
2022-08-19T15:05:51.652Z,68.00
2022-08-19T15:06:50.643Z,67.90
2022-08-19T15:07:50.631Z,67.90
2022-08-19T15:08:50.691Z,68.00
2022-08-19T15:09:50.612Z,67.90
2022-08-19T15:10:50.602Z,67.90
2022-08-19T15:11:50.589Z,67.90
2022-08-19T15:12:51.885Z,67.90
2022-08-19T15:13:50.567Z,67.90
2022-08-19T15:14:50.557Z,67.80
2022-08-19T15:15:50.564Z,67.80
2022-08-19T15:16:50.648Z,67.80
2022-08-19T15:17:50.529Z,67.80
2022-08-19T15:18:50.534Z,67.70
2022-08-19T15:19:50.506Z,67.70
2022-08-19T15:20:50.492Z,67.70
2022-08-19T15:21:50.507Z,67.70
2022-08-19T15:22:50.470Z,67.70
2022-08-19T15:23:50.460Z,67.60
2022-08-19T15:24:50.453Z,67.60
2022-08-19T15:25:50.440Z,67.60
2022-08-19T15:26:50.430Z,67.60
2022-08-19T15:27:50.486Z,67.60
2022-08-19T15:28:50.411Z,67.50
2022-08-19T15:29:50.396Z,67.50
2022-08-19T15:30:51.382Z,67.50
2022-08-19T15:31:50.399Z,67.50
2022-08-19T15:32:50.363Z,67.50
2022-08-19T15:33:50.378Z,67.50
2022-08-19T15:34:50.342Z,67.50
2022-08-19T15:35:50.332Z,67.50
2022-08-19T15:36:50.340Z,67.50
2022-08-19T15:37:50.313Z,67.50
2022-08-19T15:38:50.300Z,67.50
2022-08-19T15:39:50.311Z,67.50
2022-08-19T15:40:50.280Z,67.50
2022-08-19T15:41:50.290Z,67.50
2022-08-19T15:42:50.291Z,67.50
2022-08-19T15:43:50.244Z,67.50
2022-08-19T15:44:50.238Z,67.50
2022-08-19T15:45:50.227Z,67.50
2022-08-19T15:46:50.216Z,67.50
2022-08-19T15:47:50.293Z,67.50
2022-08-19T15:48:57.179Z,67.50
2022-08-19T15:49:51.181Z,67.50
2022-08-19T15:50:50.172Z,67.50
2022-08-19T15:51:50.158Z,67.50
2022-08-19T15:52:50.413Z,67.50
2022-08-19T15:53:50.156Z,67.50
2022-08-19T15:54:50.128Z,67.50
2022-08-19T15:55:50.117Z,67.50
2022-08-19T15:56:58.073Z,67.40
2022-08-19T15:57:51.179Z,67.40
2022-08-19T15:58:50.107Z,67.40
2022-08-19T15:59:50.188Z,67.30
2022-08-19T16:00:52.761Z,67.30
2022-08-19T16:01:50.087Z,67.30
2022-08-19T16:02:50.300Z,67.20
2022-08-19T16:03:50.051Z,67.20
2022-08-19T16:04:50.025Z,67.20
2022-08-19T16:05:50.009Z,67.30
2022-08-19T16:06:50.003Z,67.30
2022-08-19T16:07:49.985Z,67.30
2022-08-19T16:08:49.975Z,67.30
2022-08-19T16:09:49.991Z,67.30
2022-08-19T16:10:49.956Z,67.30
2022-08-19T16:11:56.435Z,67.30
2022-08-19T16:12:50.948Z,67.20
2022-08-19T16:13:49.922Z,67.20
2022-08-19T16:14:49.936Z,67.20
2022-08-19T16:15:49.901Z,67.20
2022-08-19T16:16:49.893Z,67.20
2022-08-19T16:17:56.495Z,67.20
2022-08-19T16:18:50.905Z,67.20
2022-08-19T16:19:52.691Z,67.20
2022-08-19T16:20:49.849Z,67.20
2022-08-19T16:21:49.836Z,67.20
2022-08-19T16:22:49.828Z,67.20
2022-08-19T16:23:49.813Z,67.10
2022-08-19T16:24:49.828Z,67.20
2022-08-19T16:25:49.814Z,67.20
2022-08-19T16:26:49.784Z,67.20
2022-08-19T16:28:06.568Z,67.10
2022-08-19T16:28:50.782Z,67.10
2022-08-19T16:29:49.749Z,67.10
2022-08-19T16:30:51.147Z,67.10
2022-08-19T16:31:49.729Z,67.20
2022-08-19T16:32:49.744Z,67.20
2022-08-19T16:33:49.708Z,67.20
2022-08-19T16:34:49.698Z,67.20
2022-08-19T16:35:58.457Z,67.20
2022-08-19T16:36:50.679Z,67.20
2022-08-19T16:37:49.663Z,67.20
2022-08-19T16:38:49.676Z,67.20
2022-08-19T16:39:49.684Z,67.20
2022-08-19T16:40:49.634Z,67.30
2022-08-19T16:41:49.624Z,67.30
2022-08-19T16:42:49.630Z,67.30
2022-08-19T16:43:49.600Z,67.30
2022-08-19T16:44:49.612Z,67.30
2022-08-19T16:45:49.578Z,67.20
2022-08-19T16:46:57.345Z,67.30
2022-08-19T16:47:50.617Z,67.30
2022-08-19T16:48:49.569Z,67.30
2022-08-19T16:49:53.527Z,67.30
2022-08-19T16:50:50.526Z,67.30
2022-08-19T16:51:49.514Z,67.40
2022-08-19T16:52:49.506Z,67.40
2022-08-19T16:53:49.513Z,67.40
2022-08-19T16:54:49.504Z,67.40
2022-08-19T16:55:49.473Z,67.40
2022-08-19T16:56:49.494Z,67.40
2022-08-19T16:57:49.447Z,67.50
2022-08-19T16:58:49.438Z,67.40
2022-08-19T16:59:49.653Z,67.50
2022-08-19T17:00:49.429Z,67.50
2022-08-19T17:01:49.418Z,67.50
2022-08-19T17:02:49.420Z,67.50
2022-08-19T17:03:49.387Z,67.50
2022-08-19T17:04:57.571Z,67.50
2022-08-19T17:05:50.362Z,67.50
2022-08-19T17:06:49.355Z,67.50
2022-08-19T17:07:49.363Z,67.40
2022-08-19T17:08:49.333Z,67.40
2022-08-19T17:09:49.321Z,67.40
2022-08-19T17:11:16.672Z,67.30
2022-08-19T17:11:50.299Z,67.40
2022-08-19T17:12:49.286Z,67.40
2022-08-19T17:13:49.277Z,67.40
2022-08-19T17:14:49.266Z,67.40
2022-08-19T17:15:49.257Z,67.40
2022-08-19T17:16:49.264Z,67.43
2022-08-19T17:17:49.236Z,67.43
2022-08-19T17:18:49.227Z,67.43
2022-08-19T17:19:49.234Z,67.43
2022-08-19T17:20:49.202Z,67.43
2022-08-19T17:21:49.191Z,67.40
2022-08-19T17:22:49.184Z,67.43
2022-08-19T17:23:49.171Z,67.43
2022-08-19T17:24:49.177Z,67.43
2022-08-19T17:25:49.148Z,67.33
2022-08-19T17:26:49.137Z,67.40
2022-08-19T17:27:49.217Z,67.43
2022-08-19T17:28:49.145Z,67.43
2022-08-19T17:29:49.107Z,67.43
2022-08-19T17:30:49.093Z,67.40
2022-08-19T17:31:49.085Z,67.43
2022-08-19T17:32:49.072Z,67.43
2022-08-19T17:33:49.209Z,67.43
2022-08-19T17:34:49.079Z,67.43
2022-08-19T17:35:49.040Z,67.43
2022-08-19T17:36:49.029Z,67.40
2022-08-19T17:37:49.019Z,67.43
2022-08-19T17:38:49.006Z,67.43
2022-08-19T17:39:49.034Z,67.43
2022-08-19T17:40:49.007Z,67.43
2022-08-19T17:41:48.978Z,67.43
2022-08-19T17:42:48.963Z,67.43
2022-08-19T17:43:48.956Z,67.43
2022-08-19T17:44:50.520Z,67.43
2022-08-19T17:45:48.933Z,67.43
2022-08-19T17:46:48.921Z,67.43
2022-08-19T17:47:49.024Z,67.43
2022-08-19T17:48:51.406Z,67.43
2022-08-19T17:49:48.889Z,67.43
2022-08-19T17:50:48.898Z,67.43
2022-08-19T17:51:48.867Z,67.43
2022-08-19T17:52:48.943Z,67.33
2022-08-19T17:53:48.846Z,67.33
2022-08-19T17:54:48.835Z,67.33
2022-08-19T17:55:48.828Z,67.43
2022-08-19T17:56:48.813Z,67.43
2022-08-19T17:57:48.851Z,67.33
2022-08-19T17:58:59.613Z,67.43
2022-08-19T17:59:49.780Z,67.33
2022-08-19T18:00:52.737Z,67.33
2022-08-19T18:01:53.138Z,67.33
2022-08-19T18:02:48.748Z,67.33
2022-08-19T18:03:48.738Z,67.33
2022-08-19T18:04:49.001Z,67.33
2022-08-19T18:05:48.735Z,67.33
2022-08-19T18:06:53.260Z,67.33
2022-08-19T18:07:49.694Z,67.33
2022-08-19T18:08:48.683Z,67.33
2022-08-19T18:09:49.493Z,67.33
2022-08-19T18:10:48.665Z,67.33
2022-08-19T18:11:52.766Z,67.33
2022-08-19T18:12:48.644Z,67.33
2022-08-19T18:13:48.634Z,67.33
2022-08-19T18:14:48.620Z,67.33
2022-08-19T18:15:48.641Z,67.33
2022-08-19T18:16:48.599Z,67.33
2022-08-19T18:17:48.638Z,67.33
2022-08-19T18:18:48.577Z,67.33
2022-08-19T18:19:48.568Z,67.33
2022-08-19T18:20:48.557Z,67.33
2022-08-19T18:21:48.570Z,67.33
2022-08-19T18:22:48.534Z,67.33
2022-08-19T18:23:48.549Z,67.33
2022-08-19T18:24:48.513Z,67.33
2022-08-19T18:25:48.506Z,67.33
2022-08-19T18:26:48.494Z,67.33
2022-08-19T18:27:48.504Z,67.24
2022-08-19T18:28:49.969Z,67.33
2022-08-19T18:29:48.485Z,67.33
2022-08-19T18:30:48.447Z,67.24
2022-08-19T18:31:48.438Z,67.24
2022-08-19T18:32:48.426Z,67.33
2022-08-19T18:33:48.421Z,67.24
2022-08-19T18:34:48.409Z,67.24
2022-08-19T18:35:48.506Z,67.24
2022-08-19T18:36:53.681Z,67.24
2022-08-19T18:37:49.374Z,67.24
2022-08-19T18:38:48.363Z,67.24
2022-08-19T18:39:48.456Z,67.24
2022-08-19T18:40:48.343Z,67.24
2022-08-19T18:41:48.352Z,67.24
2022-08-19T18:42:48.321Z,67.24
2022-08-19T18:43:48.308Z,67.24
2022-08-19T18:44:48.299Z,67.24
2022-08-19T18:45:48.314Z,67.24
2022-08-19T18:46:48.282Z,67.24
2022-08-19T18:47:48.339Z,67.24
2022-08-19T18:48:48.260Z,67.24
2022-08-19T18:49:48.247Z,67.24
2022-08-19T18:50:48.264Z,67.24
2022-08-19T18:51:48.225Z,67.24
2022-08-19T18:52:48.214Z,67.24
2022-08-19T18:53:48.206Z,67.33
2022-08-19T18:54:48.194Z,67.24
2022-08-19T18:55:48.182Z,67.24
2022-08-19T18:56:48.191Z,67.33
2022-08-19T18:57:48.184Z,67.33
2022-08-19T18:58:48.147Z,67.33
2022-08-19T18:59:48.138Z,67.33
2022-08-19T19:00:48.193Z,67.33
2022-08-19T19:01:48.138Z,67.33
2022-08-19T19:02:48.108Z,67.33
2022-08-19T19:03:48.168Z,67.33
2022-08-19T19:04:48.085Z,67.33
2022-08-19T19:05:48.076Z,67.33
2022-08-19T19:06:48.062Z,67.33
2022-08-19T19:07:48.069Z,67.33
2022-08-19T19:08:48.070Z,67.33
2022-08-19T19:09:48.034Z,67.33
2022-08-19T19:10:48.019Z,67.33
2022-08-19T19:11:48.013Z,67.33
2022-08-19T19:12:47.998Z,67.33
2022-08-19T19:13:48.009Z,67.33
2022-08-19T19:14:50.122Z,67.33
2022-08-19T19:15:47.966Z,67.33
2022-08-19T19:16:47.954Z,67.33
2022-08-19T19:17:48.086Z,67.33
2022-08-19T19:18:47.954Z,67.33
2022-08-19T19:19:47.943Z,67.33
2022-08-19T19:20:47.914Z,67.33
2022-08-19T19:21:47.907Z,67.33
2022-08-19T19:22:47.921Z,67.33
2022-08-19T19:23:47.882Z,67.33
2022-08-19T19:24:47.870Z,67.33
2022-08-19T19:25:51.133Z,67.33
2022-08-19T19:26:47.847Z,67.33
2022-08-19T19:27:47.893Z,67.33
2022-08-19T19:28:47.830Z,67.33
2022-08-19T19:29:51.722Z,67.33
2022-08-19T19:30:47.805Z,67.33
2022-08-19T19:31:47.814Z,67.33
2022-08-19T19:32:47.783Z,67.33
2022-08-19T19:33:47.774Z,67.33
2022-08-19T19:34:47.762Z,67.33
2022-08-19T19:35:47.772Z,67.33
2022-08-19T19:36:47.739Z,67.33
2022-08-19T19:37:47.768Z,67.33
2022-08-19T19:38:49.023Z,67.33
2022-08-19T19:39:47.856Z,67.33
2022-08-19T19:40:47.718Z,67.33
2022-08-19T19:41:47.703Z,67.33
2022-08-19T19:42:47.674Z,67.33
2022-08-19T19:43:47.662Z,67.33
2022-08-19T19:44:48.653Z,67.33
2022-08-19T19:45:47.665Z,67.33
2022-08-19T19:46:47.630Z,67.33
2022-08-19T19:47:47.626Z,67.33
2022-08-19T19:48:47.609Z,67.33
2022-08-19T19:50:12.741Z,67.33
2022-08-19T19:50:54.077Z,67.24
2022-08-19T19:51:48.576Z,67.33
2022-08-19T19:52:47.600Z,67.33
2022-08-19T19:53:47.559Z,67.33
2022-08-19T19:54:47.897Z,67.24
2022-08-19T19:55:47.539Z,67.24
2022-08-19T19:56:47.526Z,67.33
2022-08-19T19:57:47.514Z,67.33
2022-08-19T19:58:47.524Z,67.33
2022-08-19T19:59:51.657Z,67.24
2022-08-19T20:00:47.496Z,67.24
2022-08-19T20:01:47.543Z,67.24
2022-08-19T20:02:50.213Z,67.33
2022-08-19T20:03:47.449Z,67.33
2022-08-19T20:04:47.458Z,67.24
2022-08-19T20:05:47.427Z,67.24
2022-08-19T20:06:47.416Z,67.24
2022-08-19T20:07:47.408Z,67.24
2022-08-19T20:08:47.394Z,67.24
2022-08-19T20:09:59.643Z,67.24
2022-08-19T20:10:48.392Z,67.33
2022-08-19T20:11:47.364Z,67.24
2022-08-19T20:12:47.349Z,67.24
2022-08-19T20:13:47.359Z,67.24
2022-08-19T20:14:47.353Z,67.24
2022-08-19T20:15:47.324Z,67.24
2022-08-19T20:16:47.308Z,67.33
2022-08-19T20:17:47.298Z,67.24
2022-08-19T20:18:47.287Z,67.24
2022-08-19T20:19:47.304Z,67.24
2022-08-19T20:20:47.266Z,67.33
2022-08-19T20:21:51.092Z,67.33
2022-08-19T20:22:47.245Z,67.24
2022-08-19T20:24:09.554Z,67.33
2022-08-19T20:24:48.218Z,67.24
2022-08-19T20:25:47.213Z,67.24
2022-08-19T20:26:47.200Z,67.33
2022-08-19T20:27:47.189Z,67.33
2022-08-19T20:28:48.392Z,67.33
2022-08-19T20:29:48.168Z,67.33
2022-08-19T20:30:48.100Z,67.33
2022-08-19T20:31:57.694Z,67.33
2022-08-19T20:32:48.135Z,67.33
2022-08-19T20:33:47.124Z,67.33
2022-08-19T20:34:47.132Z,67.33
2022-08-19T20:35:47.127Z,67.33
2022-08-19T20:36:47.094Z,67.33
2022-08-19T20:37:47.105Z,67.33
2022-08-19T20:38:47.093Z,67.24
2022-08-19T20:39:47.124Z,67.33
2022-08-19T20:40:47.057Z,67.24
2022-08-19T20:41:47.038Z,67.33
2022-08-19T20:42:47.026Z,67.33
2022-08-19T20:43:47.017Z,67.24
2022-08-19T20:44:47.025Z,67.24
2022-08-19T20:45:46.997Z,67.24
2022-08-19T20:46:54.539Z,67.24
2022-08-19T20:47:47.972Z,67.33
2022-08-19T20:48:46.963Z,67.24
2022-08-19T20:49:46.955Z,67.24
2022-08-19T20:50:46.941Z,67.24
2022-08-19T20:51:46.932Z,67.33
2022-08-19T20:52:53.523Z,67.24
2022-08-19T20:53:47.911Z,67.24
2022-08-19T20:54:46.900Z,67.24
2022-08-19T20:55:46.888Z,67.24
2022-08-19T20:56:46.877Z,67.24
2022-08-19T20:57:46.893Z,67.24
2022-08-19T20:58:50.072Z,67.24
2022-08-19T20:59:47.847Z,67.24
2022-08-19T21:00:46.911Z,67.24
2022-08-19T21:01:46.827Z,67.24
2022-08-19T21:02:46.813Z,67.24
2022-08-19T21:03:46.827Z,67.24
2022-08-19T21:04:46.792Z,67.24
2022-08-19T21:05:46.787Z,67.24
2022-08-19T21:06:46.772Z,67.24
2022-08-19T21:07:46.760Z,67.24
2022-08-19T21:08:46.769Z,67.24
2022-08-19T21:09:46.741Z,67.24
2022-08-19T21:10:46.727Z,67.24
2022-08-19T21:11:46.740Z,67.24
2022-08-19T21:12:46.706Z,67.24
2022-08-19T21:13:46.695Z,67.24
2022-08-19T21:14:46.709Z,67.24
2022-08-19T21:15:46.675Z,67.24
2022-08-19T21:16:46.662Z,67.24
2022-08-19T21:17:46.657Z,67.24
2022-08-19T21:18:46.657Z,67.24
2022-08-19T21:19:46.631Z,67.24
2022-08-19T21:20:46.641Z,67.24
2022-08-19T21:21:46.612Z,67.24
2022-08-19T21:22:46.598Z,67.24
2022-08-19T21:23:46.590Z,67.24
2022-08-19T21:24:46.576Z,67.24
2022-08-19T21:25:50.412Z,67.24
2022-08-19T21:26:51.179Z,67.24
2022-08-19T21:27:46.544Z,67.24
2022-08-19T21:28:46.537Z,67.24
2022-08-19T21:29:46.522Z,67.24
2022-08-19T21:30:46.514Z,67.24
2022-08-19T21:31:46.533Z,67.24
2022-08-19T21:32:50.469Z,67.24
2022-08-19T21:33:47.479Z,67.24
2022-08-19T21:34:46.649Z,67.24
2022-08-19T21:35:46.458Z,67.24
2022-08-19T21:36:46.471Z,67.24
2022-08-19T21:37:46.438Z,67.24
2022-08-19T21:38:46.449Z,67.24
2022-08-19T21:39:46.477Z,67.24
2022-08-19T21:40:46.406Z,67.24
2022-08-19T21:41:46.396Z,67.24
2022-08-19T21:42:46.386Z,67.24
2022-08-19T21:43:46.403Z,67.24
2022-08-19T21:44:46.364Z,67.24
2022-08-19T21:45:46.355Z,67.24
2022-08-19T21:46:50.519Z,67.24
2022-08-19T21:47:46.334Z,67.24
2022-08-19T21:48:46.320Z,67.24
2022-08-19T21:49:46.340Z,67.24
2022-08-19T21:50:48.315Z,67.24
2022-08-19T21:51:46.292Z,67.24
2022-08-19T21:52:46.278Z,67.24
2022-08-19T21:53:46.287Z,67.24
2022-08-19T21:54:46.257Z,67.24
2022-08-19T21:55:52.842Z,67.24
2022-08-19T21:56:47.234Z,67.24
2022-08-19T21:57:46.227Z,67.24
2022-08-19T21:58:46.233Z,67.24
2022-08-19T21:59:46.206Z,67.24
2022-08-19T22:00:46.246Z,67.24
2022-08-19T22:01:50.459Z,67.24
2022-08-19T22:02:47.170Z,67.24
2022-08-19T22:03:46.159Z,67.24
2022-08-19T22:04:46.168Z,67.24
2022-08-19T22:05:46.140Z,67.24
2022-08-19T22:06:46.126Z,67.24
2022-08-19T22:07:46.116Z,67.24
2022-08-19T22:08:46.110Z,67.24
2022-08-19T22:09:46.117Z,67.24
2022-08-19T22:10:46.664Z,67.24
2022-08-19T22:11:46.099Z,67.24
2022-08-19T22:12:51.754Z,67.24
2022-08-19T22:13:47.049Z,67.24
2022-08-19T22:14:46.040Z,67.24
2022-08-19T22:15:46.032Z,67.24
2022-08-19T22:16:46.018Z,67.24
2022-08-19T22:17:46.035Z,67.24
2022-08-19T22:18:46.032Z,67.24
2022-08-19T22:19:45.990Z,67.24
2022-08-19T22:20:45.975Z,67.24
2022-08-19T22:21:45.967Z,67.24
2022-08-19T22:22:45.953Z,67.24
2022-08-19T22:23:45.947Z,67.24
2022-08-19T22:24:45.952Z,67.24
2022-08-19T22:25:45.922Z,67.24
2022-08-19T22:26:45.911Z,67.24
2022-08-19T22:27:45.902Z,67.24
2022-08-19T22:28:45.891Z,67.24
2022-08-19T22:29:45.902Z,67.24
2022-08-19T22:30:45.869Z,67.24
2022-08-19T22:31:45.862Z,67.24
2022-08-19T22:32:46.847Z,67.24